Observation data for Silverton on 03/26/2020      Previous  Date  Next       Current Mesonet Observations  Soil Data  Daily Summary Page  Observations in Plain Language
KSVS 260500Z 22011KT 17/01 A2981 RMK A01 T01710009  RH  034%=      5-min Rain = 0
KSVS 260505Z 22011KT 17/01 A2981 RMK A01 T01690010  RH  034%=      5-min Rain = 0
KSVS 260510Z 22011KT 17/01 A2981 RMK A01 T01660010  RH  035%=      5-min Rain = 0
KSVS 260515Z 22012KT 17/01 A2981 RMK A01 T01670010  RH  035%=      5-min Rain = 0
KSVS 260520Z 22012KT 17/01 A298 RMK A01 T01700009  RH  034%=      5-min Rain = 0
KSVS 260525Z 22012KT 17/01 A298 RMK A01 T01720009  RH  034%=      5-min Rain = 0
KSVS 260530Z 23012KT 17/01 A298 RMK A01 T01720009  RH  034%=      5-min Rain = 0
KSVS 260535Z 23012KT 17/01 A298 RMK A01 T01720009  RH  034%=      5-min Rain = 0
KSVS 260540Z 23011KT 17/01 A298 RMK A01 T01690010  RH  035%=      5-min Rain = 0
KSVS 260545Z 23012KT 17/01 A298 RMK A01 T01680010  RH  035%=      5-min Rain = 0
KSVS 260550Z 23011KT 17/01 A298 RMK A01 T01680010  RH  035%=      5-min Rain = 0
KSVS 260555Z 23011KT 17/01 A298 RMK A01 T01660010  RH  035%=      5-min Rain = 0
KSVS 260600Z 23011KT 17/01 A298 RMK A01 T01670010  RH  035%=      5-min Rain = 0
KSVS 260605Z 23011KT 17/01 A298 RMK A01 T01670010  RH  035%=      5-min Rain = 0
KSVS 260610Z 23011KT 17/01 A2981 RMK A01 T01660011  RH  036%=      5-min Rain = 0
KSVS 260615Z 24011KT 16/01 A2981 RMK A01 T01630012  RH  036%=      5-min Rain = 0
KSVS 260620Z 24012KT 16/01 A2981 RMK A01 T01620012  RH  037%=      5-min Rain = 0
KSVS 260625Z 25014KT 17/01 A2981 RMK A01 T01660010  RH  035%=      5-min Rain = 0
KSVS 260630Z 25016KT 17/01 A2981 RMK A01 T01710008  RH  034%=      5-min Rain = 0
KSVS 260635Z 25015G20KT 17/01 A2981 RMK A01 T01730008  RH  033%=      5-min Rain = 0
KSVS 260640Z 26014KT 17/01 A2981 RMK A01 T01710008  RH  034%=      5-min Rain = 0
KSVS 260645Z 26012KT 17/01 A2981 RMK A01 T01670009  RH  035%=      5-min Rain = 0
KSVS 260650Z 26011KT 16/01 A2981 RMK A01 T01640010  RH  036%=      5-min Rain = 0
KSVS 260655Z 26011KT 16/01 A298 RMK A01 T01600010  RH  037%=      5-min Rain = 0
KSVS 260700Z 26010KT 16/01 A298 RMK A01 T01590011  RH  037%=      5-min Rain = 0
KSVS 260705Z 26010KT 16/01 A298 RMK A01 T01580011  RH  037%=      5-min Rain = 0
KSVS 260710Z 26011KT 16/01 A298 RMK A01 T01560012  RH  038%=      5-min Rain = 0
KSVS 260715Z 27011KT 15/01 A298 RMK A01 T01530012  RH  039%=      5-min Rain = 0
KSVS 260720Z 27011KT 15/01 A298 RMK A01 T01520013  RH  040%=      5-min Rain = 0
KSVS 260725Z 27010KT 15/01 A298 RMK A01 T01500014  RH  040%=      5-min Rain = 0
KSVS 260730Z 27011KT 15/01 A298 RMK A01 T01480014  RH  041%=      5-min Rain = 0
KSVS 260735Z 26012KT 15/01 A298 RMK A01 T01520014  RH  040%=      5-min Rain = 0
KSVS 260740Z 26012KT 16/01 A298 RMK A01 T01550014  RH  039%=      5-min Rain = 0
KSVS 260745Z 26012KT 16/01 A298 RMK A01 T01580014  RH  038%=      5-min Rain = 0
KSVS 260750Z 26012KT 16/01 A298 RMK A01 T01590013  RH  038%=      5-min Rain = 0
KSVS 260755Z 26012KT 16/01 A298 RMK A01 T01600014  RH  038%=      5-min Rain = 0
KSVS 260800Z 26012KT 16/01 A298 RMK A01 T01630013  RH  037%=      5-min Rain = 0
KSVS 260805Z 26013KT 17/01 A298 RMK A01 T01660013  RH  036%=      5-min Rain = 0
KSVS 260810Z 26013KT 17/01 A298 RMK A01 T01690013  RH  035%=      5-min Rain = 0
KSVS 260815Z 26013KT 17/01 A298 RMK A01 T01700012  RH  035%=      5-min Rain = 0
KSVS 260820Z 26013KT 17/01 A298 RMK A01 T01710013  RH  035%=      5-min Rain = 0
KSVS 260825Z 26013KT 17/01 A298 RMK A01 T01700013  RH  035%=      5-min Rain = 0
KSVS 260830Z 26014KT 17/01 A298 RMK A01 T01710013  RH  035%=      5-min Rain = 0
KSVS 260835Z 26013KT 17/01 A298 RMK A01 T01700013  RH  035%=      5-min Rain = 0
KSVS 260840Z 26013KT 17/01 A298 RMK A01 T01710014  RH  035%=      5-min Rain = 0
KSVS 260845Z 27013KT 17/01 A2979 RMK A01 T01720014  RH  035%=      5-min Rain = 0
KSVS 260850Z 27013KT 17/02 A2979 RMK A01 T01720015  RH  035%=      5-min Rain = 0
KSVS 260855Z 27012KT 17/02 A2979 RMK A01 T01690016  RH  036%=      5-min Rain = 0
KSVS 260900Z 27012KT 17/02 A2979 RMK A01 T01670017  RH  037%=      5-min Rain = 0
KSVS 260905Z 27012KT 16/02 A2978 RMK A01 T01640018  RH  038%=      5-min Rain = 0
KSVS 260910Z 28012KT 16/02 A2978 RMK A01 T01600019  RH  039%=      5-min Rain = 0
KSVS 260915Z 28011KT 16/02 A2977 RMK A01 T01560020  RH  040%=      5-min Rain = 0
KSVS 260920Z 28011KT 15/02 A2977 RMK A01 T01540020  RH  041%=      5-min Rain = 0
KSVS 260925Z 28011KT 16/02 A2977 RMK A01 T01560021  RH  041%=      5-min Rain = 0
KSVS 260930Z 27011KT 16/02 A2978 RMK A01 T01550022  RH  042%=      5-min Rain = 0
KSVS 260935Z 26012KT 15/02 A2978 RMK A01 T01540022  RH  042%=      5-min Rain = 0
KSVS 260940Z 24011KT 15/02 A2979 RMK A01 T01480022  RH  043%=      5-min Rain = 0
KSVS 260945Z 24011KT 14/02 A2979 RMK A01 T01420022  RH  045%=      5-min Rain = 0
KSVS 260950Z 24012KT 14/02 A2979 RMK A01 T01420021  RH  045%=      5-min Rain = 0
KSVS 260955Z 26012KT 15/02 A2979 RMK A01 T01470021  RH  043%=      5-min Rain = 0
KSVS 261000Z 26012KT 15/02 A2979 RMK A01 T01510021  RH  042%=      5-min Rain = 0
KSVS 261005Z 25012KT 15/02 A2979 RMK A01 T01500022  RH  043%=      5-min Rain = 0
KSVS 261010Z 26012KT 15/02 A2978 RMK A01 T01480022  RH  043%=      5-min Rain = 0
KSVS 261015Z 26013KT 15/02 A2978 RMK A01 T01500022  RH  043%=      5-min Rain = 0
KSVS 261020Z 26012KT 15/02 A2978 RMK A01 T01490023  RH  043%=      5-min Rain = 0
KSVS 261025Z 23009KT 14/02 A2979 RMK A01 T01420023  RH  045%=      5-min Rain = 0
KSVS 261030Z 25009KT 13/02 A2979 RMK A01 T01310024  RH  049%=      5-min Rain = 0
KSVS 261035Z 24009KT 13/03 A2979 RMK A01 T01270025  RH  051%=      5-min Rain = 0
KSVS 261040Z 23012G17KT 13/03 A298 RMK A01 T01270025  RH  051%=      5-min Rain = 0
KSVS 261045Z 23012KT 14/03 A298 RMK A01 T01350025  RH  048%=      5-min Rain = 0
KSVS 261050Z 23012KT 14/02 A298 RMK A01 T01370024  RH  047%=      5-min Rain = 0
KSVS 261055Z 22013KT 14/02 A298 RMK A01 T01400024  RH  046%=      5-min Rain = 0
KSVS 261100Z 23013KT 14/02 A298 RMK A01 T01390023  RH  046%=      5-min Rain = 0
KSVS 261105Z 23012KT 14/02 A298 RMK A01 T01380023  RH  046%=      5-min Rain = 0
KSVS 261110Z 23012KT 14/02 A298 RMK A01 T01400022  RH  046%=      5-min Rain = 0
KSVS 261115Z 24013KT 15/02 A2979 RMK A01 T01450021  RH  044%=      5-min Rain = 0
KSVS 261120Z 24014KT 15/02 A2979 RMK A01 T01480020  RH  043%=      5-min Rain = 0
KSVS 261125Z 23012KT 15/02 A2979 RMK A01 T01460021  RH  044%=      5-min Rain = 0
KSVS 261130Z 24012KT 14/02 A298 RMK A01 T01420021  RH  044%=      5-min Rain = 0
KSVS 261135Z 25012KT 14/02 A298 RMK A01 T01440020  RH  044%=      5-min Rain = 0
KSVS 261140Z 25012KT 15/02 A298 RMK A01 T01460018  RH  042%=      5-min Rain = 0
KSVS 261145Z 24012KT 15/02 A2979 RMK A01 T01470017  RH  042%=      5-min Rain = 0
KSVS 261150Z 24013KT 15/02 A298 RMK A01 T01450017  RH  042%=      5-min Rain = 0
KSVS 261155Z 24012KT 14/02 A298 RMK A01 T01440018  RH  043%=      5-min Rain = 0
KSVS 261200Z 24012KT 14/02 A298 RMK A01 T01420017  RH  043%=      5-min Rain = 0
KSVS 261205Z 23012KT 14/02 A2979 RMK A01 T01420017  RH  043%=      5-min Rain = 0
KSVS 261210Z 23011KT 14/02 A298 RMK A01 T01410017  RH  044%=      5-min Rain = 0
KSVS 261215Z 24012KT 14/02 A298 RMK A01 T01410016  RH  043%=      5-min Rain = 0
KSVS 261220Z 25012KT 14/02 A298 RMK A01 T01410016  RH  043%=      5-min Rain = 0
KSVS 261225Z 25012KT 14/02 A298 RMK A01 T01380016  RH  044%=      5-min Rain = 0
KSVS 261230Z 24012KT 14/02 A2981 RMK A01 T01370016  RH  044%=      5-min Rain = 0
KSVS 261235Z 24011KT 14/02 A2981 RMK A01 T01350017  RH  045%=      5-min Rain = 0
KSVS 261240Z 25011KT 13/02 A2981 RMK A01 T01320019  RH  047%=      5-min Rain = 0
KSVS 261245Z 25011KT 13/02 A2981 RMK A01 T01310021  RH  048%=      5-min Rain = 0
KSVS 261250Z 24011KT 13/02 A2981 RMK A01 T01330024  RH  048%=      5-min Rain = 0
KSVS 261255Z 23010KT 14/03 A2981 RMK A01 T01350028  RH  049%=      5-min Rain = 0
KSVS 261300Z 23013KT 15/04 A2981 RMK A01 T01480039  RH  049%=      5-min Rain = 0
KSVS 261305Z 23013KT 15/05 A2981 RMK A01 T01530047  RH  050%=      5-min Rain = 0
KSVS 261310Z 22013KT 16/05 A2981 RMK A01 T01550054  RH  052%=      5-min Rain = 0
KSVS 261315Z 22012KT 16/06 A2981 RMK A01 T01580058  RH  053%=      5-min Rain = 0
KSVS 261320Z 22013KT 16/06 A2981 RMK A01 T01590062  RH  054%=      5-min Rain = 0
KSVS 261325Z 22013KT 16/07 A2981 RMK A01 T01620066  RH  054%=      5-min Rain = 0
KSVS 261330Z 22012KT 16/07 A2981 RMK A01 T01630069  RH  055%=      5-min Rain = 0
KSVS 261335Z 22013G18KT 17/07 A2981 RMK A01 T01650074  RH  056%=      5-min Rain = 0
KSVS 261340Z 22014KT 17/08 A2981 RMK A01 T01700080  RH  057%=      5-min Rain = 0
KSVS 261345Z 22015G21KT 17/08 A2981 RMK A01 T01730083  RH  057%=      5-min Rain = 0
KSVS 261350Z 22015G21KT 18/09 A2981 RMK A01 T01800090  RH  057%=      5-min Rain = 0
KSVS 261355Z 22016G22KT 19/10 A2981 RMK A01 T01880097  RH  057%=      5-min Rain = 0
KSVS 261400Z 22015KT 19/10 A2982 RMK A01 T01940101  RH  057%=      5-min Rain = 0
KSVS 261405Z 22013KT 20/10 A2982 RMK A01 T01990103  RH  056%=      5-min Rain = 0
KSVS 261410Z 22016KT 20/10 A2982 RMK A01 T02030103  RH  054%=      5-min Rain = 0
KSVS 261415Z 22017G23KT 21/10 A2982 RMK A01 T02050103  RH  054%=      5-min Rain = 0
KSVS 261420Z 22016G23KT 21/10 A2982 RMK A01 T02110104  RH  052%=      5-min Rain = 0
KSVS 261425Z 23017G22KT 21/10 A2982 RMK A01 T02120101  RH  050%=      5-min Rain = 0
KSVS 261430Z 23016G21KT 21/10 A2982 RMK A01 T02130098  RH  049%=      5-min Rain = 0
KSVS 261435Z 23016KT 21/10 A2982 RMK A01 T02140095  RH  048%=      5-min Rain = 0
KSVS 261440Z 23016G21KT 22/09 A2982 RMK A01 T02160089  RH  046%=      5-min Rain = 0
KSVS 261445Z 23016G21KT 22/08 A2982 RMK A01 T02150084  RH  044%=      5-min Rain = 0
KSVS 261450Z 23015G20KT 22/08 A2982 RMK A01 T02210083  RH  042%=      5-min Rain = 0
KSVS 261455Z 23015KT 23/08 A2982 RMK A01 T02260077  RH  039%=      5-min Rain = 0
KSVS 261500Z 23016KT 23/07 A2982 RMK A01 T02290070  RH  037%=      5-min Rain = 0
KSVS 261505Z 23015KT 23/07 A2982 RMK A01 T02330069  RH  036%=      5-min Rain = 0
KSVS 261510Z 23016G22KT 24/07 A2982 RMK A01 T02400065  RH  033%=      5-min Rain = 0
KSVS 261515Z 23017KT 24/07 A2982 RMK A01 T02440066  RH  033%=      5-min Rain = 0
KSVS 261520Z 23016G21KT 25/07 A2982 RMK A01 T02470069  RH  033%=      5-min Rain = 0
KSVS 261525Z 22015G21KT 25/07 A2982 RMK A01 T02520067  RH  032%=      5-min Rain = 0
KSVS 261530Z 22015KT 26/07 A2982 RMK A01 T02570065  RH  030%=      5-min Rain = 0
KSVS 261535Z 22017KT 26/06 A2982 RMK A01 T02570060  RH  029%=      5-min Rain = 0
KSVS 261540Z 22016G22KT 25/06 A2982 RMK A01 T02540060  RH  030%=      5-min Rain = 0
KSVS 261545Z 21015G20KT 26/06 A2982 RMK A01 T02570061  RH  029%=      5-min Rain = 0
KSVS 261550Z 22016KT 26/06 A2982 RMK A01 T02560058  RH  029%=      5-min Rain = 0
KSVS 261555Z 22015G20KT 26/06 A2982 RMK A01 T02610059  RH  028%=      5-min Rain = 0
KSVS 261600Z 23017G23KT 27/05 A2982 RMK A01 T02670052  RH  026%=      5-min Rain = 0
KSVS 261605Z 23018G23KT 27/05 A2982 RMK A01 T02710047  RH  024%=      5-min Rain = 0
KSVS 261610Z 23016G21KT 28/05 A2982 RMK A01 T02760051  RH  024%=      5-min Rain = 0
KSVS 261615Z 22016G22KT 28/05 A2982 RMK A01 T02820053  RH  024%=      5-min Rain = 0
KSVS 261620Z 22018G23KT 29/05 A2982 RMK A01 T02860049  RH  023%=      5-min Rain = 0
KSVS 261625Z 22019G24KT 29/05 A2982 RMK A01 T02890046  RH  022%=      5-min Rain = 0
KSVS 261630Z 21018G25KT 29/05 A2982 RMK A01 T02920049  RH  022%=      5-min Rain = 0
KSVS 261635Z 21020G26KT 29/04 A2982 RMK A01 T02910043  RH  021%=      5-min Rain = 0
KSVS 261640Z 21019G25KT 29/04 A2982 RMK A01 T02930043  RH  021%=      5-min Rain = 0
KSVS 261645Z 22017G23KT 30/05 A2981 RMK A01 T03000047  RH  021%=      5-min Rain = 0
KSVS 261650Z 22019G24KT 30/04 A2981 RMK A01 T03020044  RH  020%=      5-min Rain = 0
KSVS 261655Z 22018G25KT 31/04 A2981 RMK A01 T03060038  RH  019%=      5-min Rain = 0
KSVS 261700Z 22019G24KT 31/04 A2981 RMK A01 T03090035  RH  018%=      5-min Rain = 0
KSVS 261705Z 22018G24KT 31/03 A2981 RMK A01 T03090034  RH  018%=      5-min Rain = 0
KSVS 261710Z 23020G29KT 31/03 A2981 RMK A01 T03100032  RH  017%=      5-min Rain = 0
KSVS 261715Z 22019G25KT 31/03 A2981 RMK A01 T03130034  RH  017%=      5-min Rain = 0
KSVS 261720Z 22019G25KT 32/03 A2981 RMK A01 T03170034  RH  017%=      5-min Rain = 0
KSVS 261725Z 22021G27KT 32/03 A2981 RMK A01 T03150030  RH  017%=      5-min Rain = 0
KSVS 261730Z 22020G26KT 32/03 A298 RMK A01 T03160028  RH  016%=      5-min Rain = 0
KSVS 261735Z 23019G24KT 32/03 A298 RMK A01 T03180027  RH  016%=      5-min Rain = 0
KSVS 261740Z 23020G29KT 31/03 A298 RMK A01 T03140025  RH  016%=      5-min Rain = 0
KSVS 261745Z 23021G27KT 31/03 A298 RMK A01 T03130026  RH  016%=      5-min Rain = 0
KSVS 261750Z 23023G32KT 31/02 A298 RMK A01 T03130019  RH  016%=      5-min Rain = 0
KSVS 261755Z 23023G29KT 31/02 A298 RMK A01 T03110017  RH  016%=      5-min Rain = 0
KSVS 261800Z 23022G29KT 31/02 A298 RMK A01 T03090015  RH  015%=      5-min Rain = 0
KSVS 261805Z 23023G29KT 31/02 A298 RMK A01 T03120016  RH  015%=      5-min Rain = 0
KSVS 261810Z 23021G28KT 32/02 A2979 RMK A01 T03160016  RH  015%=      5-min Rain = 0
KSVS 261815Z 22022G28KT 32/02 A2979 RMK A01 T03180015  RH  015%=      5-min Rain = 0
KSVS 261820Z 23021G28KT 32/02 A2979 RMK A01 T03220016  RH  015%=      5-min Rain = 0
KSVS 261825Z 23020G28KT 32/02 A2979 RMK A01 T03200018  RH  015%=      5-min Rain = 0
KSVS 261830Z 23021G27KT 32/02 A2979 RMK A01 T03220015  RH  014%=      5-min Rain = 0
KSVS 261835Z 23023G30KT 32/01 A2978 RMK A01 T03230009  RH  014%=      5-min Rain = 0
KSVS 261840Z 24021G30KT 32/01 A2978 RMK A01 T03210014  RH  014%=      5-min Rain = 0
KSVS 261845Z 23021G28KT 32/01 A2978 RMK A01 T03210010  RH  014%=      5-min Rain = 0
KSVS 261850Z 23023G30KT 32/01 A2978 RMK A01 T03220008  RH  014%=      5-min Rain = 0
KSVS 261855Z 23021G28KT 33/01 A2977 RMK A01 T03250011  RH  014%=      5-min Rain = 0
KSVS 261900Z 23024G31KT 33/01 A2977 RMK A01 T03270006  RH  013%=      5-min Rain = 0
KSVS 261905Z 23022G27KT 33/01 A2977 RMK A01 T03290009  RH  013%=      5-min Rain = 0
KSVS 261910Z 23020G28KT 33/01 A2977 RMK A01 T03300007  RH  013%=      5-min Rain = 0
KSVS 261915Z 23019G28KT 32/01 A2976 RMK A01 T03230010  RH  014%=      5-min Rain = 0
KSVS 261920Z 22020G27KT 33/01 A2976 RMK A01 T03300013  RH  014%=      5-min Rain = 0
KSVS 261925Z 22022G28KT 33/01 A2976 RMK A01 T03290009  RH  013%=      5-min Rain = 0
KSVS 261930Z 21018G26KT 33/01 A2976 RMK A01 T03330013  RH  013%=      5-min Rain = 0
KSVS 261935Z 22020G29KT 33/01 A2975 RMK A01 T03330010  RH  013%=      5-min Rain = 0
KSVS 261940Z 23018G25KT 33/01 A2975 RMK A01 T03320011  RH  013%=      5-min Rain = 0
KSVS 261945Z 21020G26KT 33/01 A2975 RMK A01 T03330011  RH  013%=      5-min Rain = 0
KSVS 261950Z 22018G25KT 33/01 A2975 RMK A01 T03340011  RH  013%=      5-min Rain = 0
KSVS 261955Z 22017G24KT 32/01 A2974 RMK A01 T03230012  RH  014%=      5-min Rain = 0
KSVS 262000Z 23017G23KT 32/01 A2974 RMK A01 T03200009  RH  014%=      5-min Rain = 0
KSVS 262005Z 22020G28KT 32/01 A2974 RMK A01 T03190009  RH  014%=      5-min Rain = 0
KSVS 262010Z 21020G26KT 32/00 A2974 RMK A01 T03180004  RH  014%=      5-min Rain = 0
KSVS 262015Z 21019G25KT 32/01 A2974 RMK A01 T03200009  RH  014%=      5-min Rain = 0
KSVS 262020Z 22016G22KT 32/01 A2974 RMK A01 T03230012  RH  014%=      5-min Rain = 0
KSVS 262025Z 22019G28KT 32/01 A2973 RMK A01 T03220009  RH  014%=      5-min Rain = 0
KSVS 262030Z 23019G27KT 32/01 A2973 RMK A01 T03210010  RH  014%=      5-min Rain = 0
KSVS 262035Z 23018G24KT 32/01 A2973 RMK A01 T03220009  RH  014%=      5-min Rain = 0
KSVS 262040Z 23021G27KT 32/01 A2973 RMK A01 T03230007  RH  013%=      5-min Rain = 0
KSVS 262045Z 23018G23KT 32/01 A2972 RMK A01 T03230009  RH  014%=      5-min Rain = 0
KSVS 262050Z 22019G26KT 33/01 A2972 RMK A01 T03270013  RH  014%=      5-min Rain = 0
KSVS 262055Z 22020G28KT 32/00 A2972 RMK A01 T03190004  RH  013%=      5-min Rain = 0
KSVS 262100Z 21021G27KT 32/01 A2972 RMK A01 T03180006  RH  014%=      5-min Rain = 0
KSVS 262105Z 21020G26KT 32/01 A2972 RMK A01 T03190007  RH  014%=      5-min Rain = 0
KSVS 262110Z 22019G24KT 32/01 A2971 RMK A01 T03170007  RH  014%=      5-min Rain = 0
KSVS 262115Z 23020G27KT 32/00 A2971 RMK A01 T03170004  RH  014%=      5-min Rain = 0
KSVS 262120Z 23019G24KT 31/00 A2971 RMK A01 T03130004  RH  014%=      5-min Rain = 0
KSVS 262125Z 23020G26KT 31/01 A2971 RMK A01 T03140007  RH  014%=      5-min Rain = 0
KSVS 262130Z 23018G26KT 31/01 A2971 RMK A01 T03130007  RH  014%=      5-min Rain = 0
KSVS 262135Z 22020G26KT 32/01 A2971 RMK A01 T03160008  RH  014%=      5-min Rain = 0
KSVS 262140Z 22021G26KT 31/00 A2971 RMK A01 T03130000  RH  014%=      5-min Rain = 0
KSVS 262145Z 23021KT 31/00 A2971 RMK A01 T03120003  RH  014%=      5-min Rain = 0
KSVS 262150Z 24017G22KT 31/01 A2971 RMK A01 T03130013  RH  015%=      5-min Rain = 0
KSVS 262155Z 23019G29KT 32/01 A2971 RMK A01 T03150013  RH  015%=      5-min Rain = 0
KSVS 262200Z 22020G26KT 32/01 A297 RMK A01 T03180010  RH  014%=      5-min Rain = 0
KSVS 262205Z 22020G26KT 32/01 A297 RMK A01 T03150006  RH  014%=      5-min Rain = 0
KSVS 262210Z 22018G28KT 32/01 A297 RMK A01 T03170013  RH  015%=      5-min Rain = 0
KSVS 262215Z 23020G25KT 31/01 A297 RMK A01 T03130010  RH  015%=      5-min Rain = 0
KSVS 262220Z 23022G27KT 31/01 A297 RMK A01 T03100008  RH  015%=      5-min Rain = 0
KSVS 262225Z 22022G27KT 31/00 A297 RMK A01 T03140004  RH  014%=      5-min Rain = 0
KSVS 262230Z 22022G28KT 31/00 A297 RMK A01 T03120001  RH  014%=      5-min Rain = 0
KSVS 262235Z 22020G25KT 31/00 A297 RMK A01 T03090004  RH  014%=      5-min Rain = 0
KSVS 262240Z 23018G26KT 31/01 A297 RMK A01 T03080007  RH  015%=      5-min Rain = 0
KSVS 262245Z 23021G29KT 31/01 A297 RMK A01 T03070008  RH  015%=      5-min Rain = 0
KSVS 262250Z 22019G25KT 30/01 A297 RMK A01 T03040007  RH  015%=      5-min Rain = 0
KSVS 262255Z 22020G28KT 30/00 A297 RMK A01 T03030004  RH  015%=      5-min Rain = 0
KSVS 262300Z 22018G24KT 30/01 A297 RMK A01 T03010009  RH  015%=      5-min Rain = 0
KSVS 262305Z 22017G25KT 30/01 A297 RMK A01 T03000011  RH  016%=      5-min Rain = 0
KSVS 262310Z 21018G25KT 30/01 A297 RMK A01 T02980009  RH  016%=      5-min Rain = 0
KSVS 262315Z 22016G25KT 30/01 A2969 RMK A01 T02950008  RH  016%=      5-min Rain = 0
KSVS 262320Z 22017G22KT 29/01 A297 RMK A01 T02930007  RH  016%=      5-min Rain = 0
KSVS 262325Z 22016KT 29/01 A297 RMK A01 T02930008  RH  016%=      5-min Rain = 0
KSVS 262330Z 22016G22KT 30/01 A297 RMK A01 T02970011  RH  016%=      5-min Rain = 0
KSVS 262335Z 21016G23KT 30/02 A297 RMK A01 T03040015  RH  016%=      5-min Rain = 0
KSVS 262340Z 21018G27KT 30/01 A297 RMK A01 T03000013  RH  016%=      5-min Rain = 0
KSVS 262345Z 22018G25KT 30/01 A297 RMK A01 T02950011  RH  016%=      5-min Rain = 0
KSVS 262350Z 22017G22KT 30/01 A297 RMK A01 T02950013  RH  016%=      5-min Rain = 0
KSVS 262355Z 22017G23KT 29/01 A2969 RMK A01 T02930012  RH  017%=      5-min Rain = 0
KSVS 270000Z 21016G22KT 29/02 A2969 RMK A01 T02880015  RH  017%=      5-min Rain = 0
KSVS 270005Z 21014KT 28/02 A2969 RMK A01 T02830019  RH  018%=      5-min Rain = 0
KSVS 270010Z 21012KT 28/02 A2969 RMK A01 T02790023  RH  020%=      5-min Rain = 0
KSVS 270015Z 21012KT 28/02 A2969 RMK A01 T02750022  RH  020%=      5-min Rain = 0
KSVS 270020Z 22013KT 27/02 A2969 RMK A01 T02730020  RH  020%=      5-min Rain = 0
KSVS 270025Z 22014KT 27/02 A297 RMK A01 T02730016  RH  019%=      5-min Rain = 0
KSVS 270030Z 22012KT 27/02 A297 RMK A01 T02710018  RH  020%=      5-min Rain = 0
KSVS 270035Z 22012KT 27/02 A297 RMK A01 T02670018  RH  020%=      5-min Rain = 0
KSVS 270040Z 22012KT 27/02 A297 RMK A01 T02650017  RH  020%=      5-min Rain = 0
KSVS 270045Z 22012KT 26/02 A297 RMK A01 T02620016  RH  020%=      5-min Rain = 0
KSVS 270050Z 22011KT 26/02 A297 RMK A01 T02570018  RH  021%=      5-min Rain = 0
KSVS 270055Z 22012KT 25/02 A297 RMK A01 T02540018  RH  022%=      5-min Rain = 0
KSVS 270100Z 22012G17KT 25/02 A297 RMK A01 T02520018  RH  022%=      5-min Rain = 0
KSVS 270105Z 23013KT 25/02 A297 RMK A01 T02530018  RH  022%=      5-min Rain = 0
KSVS 270110Z 23013KT 25/02 A297 RMK A01 T02520019  RH  022%=      5-min Rain = 0
KSVS 270115Z 23014KT 25/02 A2971 RMK A01 T02510019  RH  022%=      5-min Rain = 0
KSVS 270120Z 23013G18KT 25/02 A2971 RMK A01 T02500019  RH  023%=      5-min Rain = 0
KSVS 270125Z 23013KT 25/02 A2971 RMK A01 T02490019  RH  023%=      5-min Rain = 0
KSVS 270130Z 23013KT 25/02 A2971 RMK A01 T02470019  RH  023%=      5-min Rain = 0
KSVS 270135Z 23014KT 25/02 A2971 RMK A01 T02460018  RH  023%=      5-min Rain = 0
KSVS 270140Z 23013G18KT 25/02 A2971 RMK A01 T02450019  RH  023%=      5-min Rain = 0
KSVS 270145Z 23014KT 24/02 A2972 RMK A01 T02440019  RH  023%=      5-min Rain = 0
KSVS 270150Z 23013KT 24/02 A2972 RMK A01 T02420020  RH  024%=      5-min Rain = 0
KSVS 270155Z 23013KT 24/02 A2972 RMK A01 T02410020  RH  024%=      5-min Rain = 0
KSVS 270200Z 23013KT 24/02 A2972 RMK A01 T02380020  RH  024%=      5-min Rain = 0
KSVS 270205Z 23012KT 24/02 A2972 RMK A01 T02350021  RH  025%=      5-min Rain = 0
KSVS 270210Z 23013KT 24/02 A2972 RMK A01 T02350020  RH  025%=      5-min Rain = 0
KSVS 270215Z 23012KT 23/02 A2972 RMK A01 T02330022  RH  025%=      5-min Rain = 0
KSVS 270220Z 23013KT 23/02 A2972 RMK A01 T02320022  RH  026%=      5-min Rain = 0
KSVS 270225Z 23013KT 23/02 A2972 RMK A01 T02320023  RH  026%=      5-min Rain = 0
KSVS 270230Z 23013KT 23/02 A2973 RMK A01 T02330022  RH  026%=      5-min Rain = 0
KSVS 270235Z 23014KT 24/02 A2973 RMK A01 T02350022  RH  025%=      5-min Rain = 0
KSVS 270240Z 23013G18KT 23/02 A2973 RMK A01 T02330023  RH  026%=      5-min Rain = 0
KSVS 270245Z 24014KT 23/02 A2974 RMK A01 T02340021  RH  025%=      5-min Rain = 0
KSVS 270250Z 23013G18KT 24/02 A2974 RMK A01 T02360021  RH  025%=      5-min Rain = 0
KSVS 270255Z 23014KT 24/02 A2974 RMK A01 T02370021  RH  025%=      5-min Rain = 0
KSVS 270300Z 24014KT 24/02 A2974 RMK A01 T02370021  RH  025%=      5-min Rain = 0
KSVS 270305Z 27014KT 23/02 A2975 RMK A01 T02330024  RH  026%=      5-min Rain = 0
KSVS 270310Z 26013G18KT 23/03 A2975 RMK A01 T02270025  RH  027%=      5-min Rain = 0
KSVS 270315Z 25013KT 23/02 A2975 RMK A01 T02300024  RH  026%=      5-min Rain = 0
KSVS 270320Z 26014KT 23/03 A2975 RMK A01 T02300025  RH  026%=      5-min Rain = 0
KSVS 270325Z 26012KT 23/03 A2976 RMK A01 T02280025  RH  027%=      5-min Rain = 0
KSVS 270330Z 25012KT 22/03 A2976 RMK A01 T02240027  RH  028%=      5-min Rain = 0
KSVS 270335Z 25011KT 22/03 A2976 RMK A01 T02200028  RH  029%=      5-min Rain = 0
KSVS 270340Z 25012KT 22/03 A2976 RMK A01 T02190029  RH  029%=      5-min Rain = 0
KSVS 270345Z 25011KT 22/03 A2976 RMK A01 T02180030  RH  030%=      5-min Rain = 0
KSVS 270350Z 26012KT 22/03 A2976 RMK A01 T02170031  RH  030%=      5-min Rain = 0
KSVS 270355Z 27012KT 22/03 A2975 RMK A01 T02160032  RH  030%=      5-min Rain = 0
KSVS 270400Z 27011KT 21/03 A2975 RMK A01 T02110034  RH  032%=      5-min Rain = 0
KSVS 270405Z 26009KT 20/04 A2975 RMK A01 T02040036  RH  034%=      5-min Rain = 0
KSVS 270410Z 26009KT 20/04 A2975 RMK A01 T01980037  RH  035%=      5-min Rain = 0
KSVS 270415Z 26009KT 19/04 A2975 RMK A01 T01930038  RH  036%=      5-min Rain = 0
KSVS 270420Z 26009KT 19/04 A2976 RMK A01 T01900038  RH  037%=      5-min Rain = 0
KSVS 270425Z 25010KT 19/04 A2976 RMK A01 T01890039  RH  038%=      5-min Rain = 0
KSVS 270430Z 26010KT 19/04 A2976 RMK A01 T01890039  RH  038%=      5-min Rain = 0
KSVS 270435Z 26010KT 19/04 A2975 RMK A01 T01890039  RH  038%=      5-min Rain = 0
KSVS 270440Z 26009KT 19/04 A2975 RMK A01 T01890039  RH  038%=      5-min Rain = 0
KSVS 270445Z 26009KT 19/04 A2975 RMK A01 T01870040  RH  038%=      5-min Rain = 0
KSVS 270450Z 26009KT 18/04 A2975 RMK A01 T01840041  RH  040%=      5-min Rain = 0
KSVS 270455Z 27009KT 18/04 A2976 RMK A01 T01790042  RH  041%=      5-min Rain = 0

Page generated in 0.0442 seconds.